createdAt,value
2018-03-25T00:00:10.838Z,69.02
2018-03-25T00:02:38.897Z,69.05
2018-03-25T00:05:07.217Z,69.05
2018-03-25T00:07:35.561Z,69.12
2018-03-25T00:10:03.882Z,68.83
2018-03-25T00:12:32.242Z,68.77
2018-03-25T00:15:00.573Z,68.87
2018-03-25T00:17:29.206Z,68.71
2018-03-25T00:19:57.551Z,68.67
2018-03-25T00:22:25.870Z,68.79
2018-03-25T00:24:54.213Z,68.46
2018-03-25T00:27:22.530Z,68.55
2018-03-25T00:29:50.874Z,68.55
2018-03-25T00:32:19.196Z,68.77
2018-03-25T00:34:47.669Z,68.63
2018-03-25T00:37:16.003Z,68.60
2018-03-25T00:39:44.347Z,69.04
2018-03-25T00:42:12.829Z,69.05
2018-03-25T00:44:41.256Z,69.03
2018-03-25T00:47:09.578Z,68.33
2018-03-25T00:49:37.926Z,67.56
2018-03-25T00:52:06.248Z,67.72
2018-03-25T00:54:34.585Z,67.93
2018-03-25T00:57:02.949Z,68.08
2018-03-25T00:59:31.290Z,68.14
2018-03-25T01:01:59.728Z,68.20
2018-03-25T01:04:28.062Z,67.99
2018-03-25T01:06:56.394Z,68.35
2018-03-25T01:09:24.742Z,68.41
2018-03-25T01:11:53.061Z,68.28
2018-03-25T01:14:21.414Z,67.97
2018-03-25T01:16:49.734Z,68.15
2018-03-25T01:19:18.078Z,68.38
2018-03-25T01:21:46.433Z,68.20
2018-03-25T01:24:14.774Z,68.57
2018-03-25T01:26:43.094Z,68.55
2018-03-25T01:29:11.442Z,68.45
2018-03-25T01:31:39.765Z,68.10
2018-03-25T01:34:08.106Z,68.09
2018-03-25T01:36:36.460Z,68.20
2018-03-25T01:39:04.839Z,68.39
2018-03-25T01:41:33.157Z,68.43
2018-03-25T01:44:01.502Z,68.62
2018-03-25T01:46:29.821Z,68.78
2018-03-25T01:48:58.164Z,68.98
2018-03-25T01:51:26.482Z,69.11
2018-03-25T01:53:54.825Z,68.95
2018-03-25T01:56:23.142Z,68.89
2018-03-25T01:58:51.513Z,69.04
2018-03-25T02:04:00.170Z,69.36
2018-03-25T02:06:28.485Z,69.64
2018-03-25T02:08:56.827Z,70.11
2018-03-25T02:11:25.146Z,69.98
2018-03-25T02:13:53.481Z,69.86
2018-03-25T02:16:21.797Z,70.25
2018-03-25T02:18:50.143Z,70.05
2018-03-25T02:21:18.458Z,69.87
2018-03-25T02:23:46.813Z,70.10
2018-03-25T02:26:15.133Z,70.10
2018-03-25T02:28:43.449Z,70.27
2018-03-25T02:31:11.790Z,70.39
2018-03-25T02:33:40.115Z,70.20
2018-03-25T02:36:08.488Z,70.26
2018-03-25T02:38:36.795Z,70.15
2018-03-25T02:41:05.144Z,70.49
2018-03-25T02:43:33.459Z,70.25
2018-03-25T02:46:01.798Z,70.46
2018-03-25T02:48:30.120Z,70.22
2018-03-25T02:50:58.454Z,70.36
2018-03-25T02:53:26.776Z,70.33
2018-03-25T02:55:55.118Z,70.79
2018-03-25T02:58:23.439Z,70.21
2018-03-25T03:00:51.786Z,70.07
2018-03-25T03:03:20.102Z,69.89
2018-03-25T03:05:48.446Z,69.56
2018-03-25T03:08:16.766Z,69.34
2018-03-25T03:10:45.102Z,69.80
2018-03-25T03:13:13.422Z,68.28
2018-03-25T03:15:41.762Z,68.06
2018-03-25T03:18:10.083Z,68.04
2018-03-25T03:20:38.432Z,68.01
2018-03-25T03:23:06.750Z,67.94
2018-03-25T03:25:35.095Z,67.89
2018-03-25T03:28:03.418Z,67.84
2018-03-25T03:30:31.764Z,67.72
2018-03-25T03:33:00.074Z,67.56
2018-03-25T03:35:28.417Z,67.51
2018-03-25T03:37:56.742Z,67.34
2018-03-25T03:40:25.086Z,67.33
2018-03-25T03:42:53.411Z,67.55
2018-03-25T03:45:21.750Z,67.55
2018-03-25T03:47:50.070Z,67.55
2018-03-25T03:50:18.414Z,67.51
2018-03-25T03:52:46.738Z,67.44
2018-03-25T03:55:15.093Z,67.51
2018-03-25T03:57:43.471Z,67.78
2018-03-25T04:00:11.836Z,68.11
2018-03-25T04:02:40.168Z,68.33
2018-03-25T04:05:08.515Z,68.41
2018-03-25T04:07:36.858Z,68.29
2018-03-25T04:10:05.224Z,68.22
2018-03-25T04:12:33.572Z,68.37
2018-03-25T04:15:01.934Z,68.38
2018-03-25T04:17:30.254Z,68.22
2018-03-25T04:19:58.698Z,68.28
2018-03-25T04:22:27.025Z,68.29
2018-03-25T04:24:55.394Z,68.37
2018-03-25T04:27:23.725Z,68.44
2018-03-25T04:29:52.037Z,68.43
2018-03-25T04:32:20.386Z,68.38
2018-03-25T04:34:48.715Z,68.37
2018-03-25T04:37:17.075Z,68.62
2018-03-25T04:39:45.414Z,68.86
2018-03-25T04:42:13.754Z,68.90
2018-03-25T04:44:42.074Z,68.93
2018-03-25T04:47:10.413Z,68.99
2018-03-25T04:49:38.733Z,68.87
2018-03-25T04:52:07.073Z,68.93
2018-03-25T04:54:35.402Z,68.89
2018-03-25T04:57:03.773Z,68.84
2018-03-25T04:59:32.091Z,68.74
2018-03-25T05:02:00.434Z,68.66
2018-03-25T05:04:28.772Z,68.65
2018-03-25T05:06:57.122Z,68.61
2018-03-25T05:09:25.446Z,68.71
2018-03-25T05:11:53.789Z,68.86
2018-03-25T05:14:22.121Z,69.06
2018-03-25T05:16:50.462Z,69.28
2018-03-25T05:19:18.809Z,69.76
2018-03-25T05:21:47.178Z,69.90
2018-03-25T05:24:15.532Z,69.94
2018-03-25T05:26:43.874Z,69.79
2018-03-25T05:29:12.204Z,69.66
2018-03-25T05:31:40.543Z,69.46
2018-03-25T05:34:08.903Z,69.50
2018-03-25T05:36:37.216Z,69.53
2018-03-25T05:39:05.545Z,69.71
2018-03-25T05:41:33.888Z,69.74
2018-03-25T05:44:02.206Z,69.56
2018-03-25T05:46:30.551Z,69.61
2018-03-25T05:48:58.865Z,70.28
2018-03-25T05:51:27.205Z,70.43
2018-03-25T05:53:55.528Z,70.59
2018-03-25T05:56:23.862Z,70.93
2018-03-25T05:58:52.185Z,71.23
2018-03-25T06:01:20.563Z,71.50
2018-03-25T06:03:48.846Z,71.47
2018-03-25T06:06:17.190Z,71.60
2018-03-25T06:08:45.510Z,71.70
2018-03-25T06:11:13.856Z,71.77
2018-03-25T06:13:42.177Z,71.78
2018-03-25T06:16:10.522Z,71.85
2018-03-25T06:18:38.843Z,71.84
2018-03-25T06:21:07.189Z,71.60
2018-03-25T06:23:35.502Z,71.76
2018-03-25T06:26:03.842Z,71.88
2018-03-25T06:28:32.161Z,72.18
2018-03-25T06:31:00.479Z,72.47
2018-03-25T06:33:28.818Z,72.76
2018-03-25T06:35:57.146Z,73.04
2018-03-25T06:38:25.485Z,73.32
2018-03-25T06:40:53.810Z,73.32
2018-03-25T06:43:22.151Z,73.60
2018-03-25T06:45:50.470Z,73.86
2018-03-25T06:48:18.810Z,74.08
2018-03-25T06:50:47.130Z,73.52
2018-03-25T06:53:15.474Z,73.60
2018-03-25T06:55:43.790Z,73.51
2018-03-25T06:58:12.134Z,73.38
2018-03-25T07:00:40.459Z,73.14
2018-03-25T07:03:08.805Z,73.25
2018-03-25T07:05:37.119Z,73.41
2018-03-25T07:08:05.457Z,73.32
2018-03-25T07:10:33.786Z,73.75
2018-03-25T07:13:02.127Z,73.95
2018-03-25T07:15:30.447Z,73.93
2018-03-25T07:17:58.791Z,73.70
2018-03-25T07:20:27.122Z,73.26
2018-03-25T07:22:55.458Z,72.99
2018-03-25T07:25:23.778Z,72.78
2018-03-25T07:27:52.128Z,73.30
2018-03-25T07:30:20.441Z,73.37
2018-03-25T07:32:48.782Z,73.27
2018-03-25T07:35:17.103Z,73.32
2018-03-25T07:37:45.455Z,73.48
2018-03-25T07:40:13.765Z,73.43
2018-03-25T07:42:42.097Z,73.11
2018-03-25T07:45:10.419Z,73.16
2018-03-25T07:47:38.771Z,73.16
2018-03-25T07:50:07.161Z,73.46
2018-03-25T07:52:35.430Z,73.48
2018-03-25T07:55:03.755Z,73.35
2018-03-25T07:57:32.093Z,72.83
2018-03-25T08:00:00.414Z,73.02
2018-03-25T08:02:28.757Z,73.07
2018-03-25T08:04:57.594Z,72.69
2018-03-25T08:07:25.939Z,72.55
2018-03-25T08:09:54.275Z,72.24
2018-03-25T08:12:22.622Z,72.22
2018-03-25T08:14:50.946Z,72.26
2018-03-25T08:17:19.294Z,72.12
2018-03-25T08:19:47.614Z,72.13
2018-03-25T08:22:15.958Z,71.79
2018-03-25T08:24:44.309Z,71.70
2018-03-25T08:27:12.655Z,71.61
2018-03-25T08:29:40.982Z,71.41
2018-03-25T08:32:09.303Z,71.08
2018-03-25T08:34:37.646Z,71.00
2018-03-25T08:37:06.883Z,70.91
2018-03-25T08:39:35.255Z,71.31
2018-03-25T08:42:03.610Z,71.41
2018-03-25T08:44:32.003Z,70.80
2018-03-25T08:47:00.427Z,70.29
2018-03-25T08:49:28.800Z,69.95
2018-03-25T08:51:57.139Z,70.06
2018-03-25T08:54:25.516Z,70.18
2018-03-25T08:56:53.860Z,70.07
2018-03-25T08:59:22.244Z,69.73
2018-03-25T09:01:50.841Z,69.95
2018-03-25T09:04:19.701Z,70.31
2018-03-25T09:06:48.171Z,69.53
2018-03-25T09:09:16.494Z,69.00
2018-03-25T09:11:44.819Z,69.47
2018-03-25T09:14:13.178Z,68.97
2018-03-25T09:16:41.498Z,69.07
2018-03-25T09:19:10.783Z,67.56
2018-03-25T09:21:39.130Z,68.14
2018-03-25T09:24:07.478Z,68.63
2018-03-25T09:26:35.806Z,68.24
2018-03-25T09:29:05.083Z,68.18
2018-03-25T09:31:33.690Z,67.50
2018-03-25T09:34:02.039Z,67.40
2018-03-25T09:36:30.365Z,66.53
2018-03-25T09:38:58.710Z,66.49
2018-03-25T09:41:27.043Z,65.94
2018-03-25T09:43:55.391Z,65.83
2018-03-25T09:46:24.622Z,65.15
2018-03-25T09:48:52.997Z,64.57
2018-03-25T09:51:21.321Z,64.48
2018-03-25T09:53:49.674Z,65.55
2018-03-25T09:56:19.006Z,64.47
2018-03-25T09:58:47.357Z,63.85
2018-03-25T10:04:15.350Z,62.95
2018-03-25T10:06:43.790Z,62.72
2018-03-25T10:09:12.143Z,61.93
2018-03-25T10:11:40.466Z,61.72
2018-03-25T10:14:08.830Z,62.65
2018-03-25T10:16:37.154Z,61.68
2018-03-25T10:19:05.513Z,60.54
2018-03-25T10:21:34.145Z,60.75
2018-03-25T10:24:02.582Z,59.80
2018-03-25T10:26:30.932Z,58.54
2018-03-25T10:28:59.302Z,57.91
2018-03-25T10:31:27.634Z,57.99
2018-03-25T10:33:56.032Z,57.53
2018-03-25T10:36:25.361Z,57.24
2018-03-25T10:38:53.715Z,57.06
2018-03-25T10:41:22.066Z,56.44
2018-03-25T10:43:50.515Z,56.33
2018-03-25T10:46:19.858Z,57.55
2018-03-25T10:48:48.231Z,56.54
2018-03-25T10:51:16.583Z,56.42
2018-03-25T10:53:44.953Z,55.25
2018-03-25T10:56:14.207Z,55.22
2018-03-25T10:58:42.571Z,55.27
2018-03-25T11:01:11.802Z,55.06
2018-03-25T11:03:40.192Z,54.80
2018-03-25T11:06:08.625Z,55.03
2018-03-25T11:08:36.998Z,53.92
2018-03-25T11:11:05.369Z,53.86
2018-03-25T11:13:33.732Z,51.90
2018-03-25T11:16:02.112Z,50.95
2018-03-25T11:18:30.459Z,51.38
2018-03-25T11:20:58.809Z,51.05
2018-03-25T11:23:27.148Z,51.56
2018-03-25T11:25:55.499Z,51.35
2018-03-25T11:28:23.842Z,51.30
2018-03-25T11:30:52.354Z,51.91
2018-03-25T11:33:20.779Z,51.66
2018-03-25T11:35:49.150Z,52.05
2018-03-25T11:38:17.483Z,52.08
2018-03-25T11:40:45.920Z,51.66
2018-03-25T11:43:14.252Z,51.81
2018-03-25T11:45:42.602Z,51.64
2018-03-25T11:48:10.935Z,52.17
2018-03-25T11:50:39.302Z,51.80
2018-03-25T11:53:07.639Z,49.36
2018-03-25T11:55:36.002Z,48.87
2018-03-25T11:58:04.358Z,50.08
2018-03-25T12:00:32.711Z,51.71
2018-03-25T12:03:01.055Z,50.10
2018-03-25T12:05:29.483Z,49.69
2018-03-25T12:07:57.814Z,48.23
2018-03-25T12:10:26.174Z,47.93
2018-03-25T12:12:54.513Z,47.61
2018-03-25T12:15:22.872Z,48.33
2018-03-25T12:17:51.275Z,48.37
2018-03-25T12:20:19.649Z,49.01
2018-03-25T12:22:48.288Z,49.16
2018-03-25T12:25:16.698Z,46.35
2018-03-25T12:27:45.039Z,46.87
2018-03-25T12:30:13.482Z,46.76
2018-03-25T12:32:42.044Z,48.66
2018-03-25T12:35:10.573Z,48.44
2018-03-25T12:37:39.034Z,47.86
2018-03-25T12:40:07.379Z,46.93
2018-03-25T12:42:35.739Z,47.09
2018-03-25T12:45:04.106Z,47.75
2018-03-25T12:47:32.439Z,48.77
2018-03-25T12:50:00.794Z,48.40
2018-03-25T12:52:29.132Z,48.40
2018-03-25T12:54:57.507Z,48.07
2018-03-25T12:57:25.847Z,48.29
2018-03-25T12:59:54.343Z,48.32
2018-03-25T13:02:22.675Z,47.97
2018-03-25T13:04:51.040Z,48.76
2018-03-25T13:07:19.446Z,48.58
2018-03-25T13:09:47.766Z,48.41
2018-03-25T13:12:16.123Z,49.19
2018-03-25T13:14:44.457Z,48.57
2018-03-25T13:17:12.805Z,47.69
2018-03-25T13:19:41.149Z,48.50
2018-03-25T13:22:09.500Z,48.80
2018-03-25T13:24:37.888Z,48.02
2018-03-25T13:27:06.236Z,46.98
2018-03-25T13:29:34.562Z,46.47
2018-03-25T13:32:02.909Z,47.27
2018-03-25T13:34:31.238Z,47.03
2018-03-25T13:36:59.591Z,46.38
2018-03-25T13:39:27.919Z,46.72
2018-03-25T13:41:56.270Z,46.24
2018-03-25T13:44:25.558Z,46.44
2018-03-25T13:46:53.887Z,46.98
2018-03-25T13:49:22.218Z,46.63
2018-03-25T13:51:50.566Z,45.73
2018-03-25T13:54:18.894Z,45.98
2018-03-25T13:56:47.250Z,46.03
2018-03-25T13:59:15.587Z,45.20
2018-03-25T14:01:43.939Z,45.43
2018-03-25T14:04:12.271Z,45.66
2018-03-25T14:06:41.570Z,44.67
2018-03-25T14:09:09.903Z,44.02
2018-03-25T14:11:38.266Z,45.09
2018-03-25T14:14:06.595Z,44.48
2018-03-25T14:16:34.953Z,44.77
2018-03-25T14:19:03.282Z,44.85
2018-03-25T14:21:31.633Z,44.78
2018-03-25T14:23:59.962Z,45.04
2018-03-25T14:26:28.312Z,44.65
2018-03-25T14:28:56.648Z,45.28
2018-03-25T14:31:25.031Z,45.14
2018-03-25T14:33:53.366Z,45.07
2018-03-25T14:36:21.728Z,45.55
2018-03-25T14:38:50.050Z,44.22
2018-03-25T14:41:18.398Z,43.13
2018-03-25T14:43:46.726Z,43.31
2018-03-25T14:46:15.074Z,42.41
2018-03-25T14:48:43.405Z,43.36
2018-03-25T14:51:11.754Z,42.78
2018-03-25T14:53:40.093Z,42.29
2018-03-25T14:56:08.662Z,43.20
2018-03-25T14:58:36.971Z,43.92
2018-03-25T15:01:05.326Z,43.99
2018-03-25T15:03:33.663Z,43.16
2018-03-25T15:06:02.016Z,43.41
2018-03-25T15:08:30.343Z,43.45
2018-03-25T15:10:58.689Z,43.18
2018-03-25T15:13:27.062Z,43.21
2018-03-25T15:15:55.390Z,43.38
2018-03-25T15:18:23.742Z,43.32
2018-03-25T15:20:52.070Z,44.76
2018-03-25T15:23:20.426Z,44.57
2018-03-25T15:25:48.754Z,44.98
2018-03-25T15:28:17.110Z,45.31
2018-03-25T15:30:45.471Z,45.15
2018-03-25T15:33:13.807Z,45.96
2018-03-25T15:35:42.138Z,45.40
2018-03-25T15:38:10.536Z,45.18
2018-03-25T15:40:39.035Z,45.12
2018-03-25T15:43:07.373Z,45.03
2018-03-25T15:45:35.749Z,45.14
2018-03-25T15:48:04.062Z,44.83
2018-03-25T15:50:32.394Z,45.50
2018-03-25T15:53:00.742Z,45.44
2018-03-25T15:55:29.070Z,45.97
2018-03-25T15:57:57.422Z,46.31
2018-03-25T16:00:26.662Z,46.14
2018-03-25T16:02:55.029Z,46.51
2018-03-25T16:05:23.342Z,46.20
2018-03-25T16:07:51.693Z,45.98
2018-03-25T16:10:20.027Z,45.76
2018-03-25T16:12:48.379Z,45.44
2018-03-25T16:15:16.698Z,46.34
2018-03-25T16:17:45.055Z,46.35
2018-03-25T16:20:13.391Z,46.58
2018-03-25T16:22:41.737Z,46.94
2018-03-25T16:25:10.075Z,47.56
2018-03-25T16:27:38.425Z,47.25
2018-03-25T16:30:06.754Z,46.92
2018-03-25T16:32:35.113Z,47.62
2018-03-25T16:35:03.455Z,48.00
2018-03-25T16:37:31.807Z,47.96
2018-03-25T16:40:00.155Z,48.05
2018-03-25T16:42:28.485Z,47.77
2018-03-25T16:44:56.820Z,46.98
2018-03-25T16:47:25.169Z,47.16
2018-03-25T16:49:53.508Z,47.58
2018-03-25T16:52:21.860Z,47.78
2018-03-25T16:54:50.194Z,47.91
2018-03-25T16:57:18.758Z,47.42
2018-03-25T16:59:47.095Z,47.19
2018-03-25T17:02:15.456Z,47.79
2018-03-25T17:04:43.796Z,48.01
2018-03-25T17:07:12.152Z,47.97
2018-03-25T17:09:40.475Z,47.56
2018-03-25T17:12:08.830Z,46.98
2018-03-25T17:14:37.190Z,46.77
2018-03-25T17:17:06.354Z,46.78
2018-03-25T17:19:34.710Z,46.99
2018-03-25T17:22:03.055Z,47.62
2018-03-25T17:24:31.417Z,47.61
2018-03-25T17:26:59.742Z,47.54
2018-03-25T17:29:28.145Z,47.72
2018-03-25T17:31:56.515Z,47.59
2018-03-25T17:34:24.868Z,47.35
2018-03-25T17:36:53.194Z,46.84
2018-03-25T17:39:21.546Z,46.95
2018-03-25T17:41:49.931Z,47.25
2018-03-25T17:44:18.230Z,47.12
2018-03-25T17:46:46.574Z,47.05
2018-03-25T17:49:14.926Z,47.19
2018-03-25T17:51:43.250Z,46.60
2018-03-25T17:54:11.610Z,46.60
2018-03-25T17:56:39.930Z,46.78
2018-03-25T17:59:08.291Z,47.18
2018-03-25T18:01:36.622Z,46.95
2018-03-25T18:04:04.975Z,47.55
2018-03-25T18:06:33.306Z,48.37
2018-03-25T18:09:01.650Z,48.60
2018-03-25T18:11:29.982Z,48.96
2018-03-25T18:13:58.440Z,49.19
2018-03-25T18:16:26.766Z,49.55
2018-03-25T18:18:55.114Z,49.84
2018-03-25T18:21:23.451Z,49.87
2018-03-25T18:23:51.794Z,50.40
2018-03-25T18:26:20.122Z,50.48
2018-03-25T18:28:48.479Z,50.49
2018-03-25T18:31:16.817Z,50.65
2018-03-25T18:33:46.073Z,50.14
2018-03-25T18:36:14.402Z,50.23
2018-03-25T18:38:42.762Z,50.50
2018-03-25T18:41:11.094Z,50.85
2018-03-25T18:43:39.446Z,51.20
2018-03-25T18:46:07.776Z,51.54
2018-03-25T18:48:36.131Z,51.45
2018-03-25T18:51:04.474Z,51.79
2018-03-25T18:53:33.822Z,52.02
2018-03-25T18:56:02.206Z,52.29
2018-03-25T18:58:30.591Z,52.57
2018-03-25T19:00:58.915Z,52.93
2018-03-25T19:03:27.385Z,53.25
2018-03-25T19:05:55.792Z,53.77
2018-03-25T19:08:24.142Z,54.29
2018-03-25T19:10:52.470Z,54.46
2018-03-25T19:13:21.456Z,54.38
2018-03-25T19:15:49.804Z,54.72
2018-03-25T19:18:18.154Z,54.70
2018-03-25T19:20:46.516Z,55.07
2018-03-25T19:23:14.858Z,55.00
2018-03-25T19:25:43.212Z,55.06
2018-03-25T19:28:11.538Z,55.10
2018-03-25T19:30:39.895Z,54.85
2018-03-25T19:33:08.232Z,54.40
2018-03-25T19:35:36.590Z,55.13
2018-03-25T19:38:04.923Z,53.55
2018-03-25T19:40:33.317Z,53.59
2018-03-25T19:43:01.619Z,53.48
2018-03-25T19:45:29.978Z,53.48
2018-03-25T19:47:58.310Z,53.71
2018-03-25T19:50:26.666Z,53.99
2018-03-25T19:52:55.727Z,54.23
2018-03-25T19:55:24.122Z,54.50
2018-03-25T19:57:52.438Z,54.92
2018-03-25T20:00:20.791Z,55.24
2018-03-25T20:02:49.122Z,55.63
2018-03-25T20:05:17.476Z,55.47
2018-03-25T20:07:45.801Z,55.19
2018-03-25T20:10:14.158Z,55.34
2018-03-25T20:12:43.283Z,55.41
2018-03-25T20:15:11.634Z,55.47
2018-03-25T20:17:39.959Z,55.52
2018-03-25T20:20:08.309Z,55.59
2018-03-25T20:22:36.638Z,55.55
2018-03-25T20:25:04.995Z,55.55
2018-03-25T20:27:33.331Z,55.42
2018-03-25T20:30:01.678Z,55.50
2018-03-25T20:32:30.011Z,55.71
2018-03-25T20:34:58.366Z,55.74
2018-03-25T20:37:26.699Z,55.91
2018-03-25T20:39:55.055Z,56.17
2018-03-25T20:42:23.391Z,56.26
2018-03-25T20:44:51.738Z,56.49
2018-03-25T20:47:20.071Z,56.49
2018-03-25T20:49:48.417Z,56.53
2018-03-25T20:52:16.764Z,56.86
2018-03-25T20:54:45.095Z,57.10
2018-03-25T20:57:13.426Z,57.36
2018-03-25T20:59:41.783Z,57.55
2018-03-25T21:02:10.115Z,57.75
2018-03-25T21:04:38.461Z,58.05
2018-03-25T21:07:06.798Z,58.59
2018-03-25T21:09:35.251Z,58.86
2018-03-25T21:12:03.571Z,58.91
2018-03-25T21:14:31.926Z,59.21
2018-03-25T21:17:00.259Z,59.38
2018-03-25T21:19:28.616Z,60.05
2018-03-25T21:21:56.965Z,59.89
2018-03-25T21:24:25.290Z,61.21
2018-03-25T21:26:53.647Z,60.28
2018-03-25T21:29:21.974Z,60.26
2018-03-25T21:31:50.321Z,60.36
2018-03-25T21:34:18.654Z,60.56
2018-03-25T21:36:47.006Z,60.29
2018-03-25T21:39:16.281Z,60.52
2018-03-25T21:41:44.631Z,60.59
2018-03-25T21:44:12.961Z,60.65
2018-03-25T21:46:41.318Z,60.63
2018-03-25T21:49:09.650Z,61.16
2018-03-25T21:51:38.013Z,61.33
2018-03-25T21:54:06.338Z,61.60
2018-03-25T21:56:34.685Z,61.71
2018-03-25T21:59:03.023Z,62.28
2018-03-25T22:01:31.375Z,62.57
2018-03-25T22:03:59.710Z,62.59
2018-03-25T22:06:28.062Z,62.76
2018-03-25T22:08:56.391Z,63.00
2018-03-25T22:11:24.747Z,63.17
2018-03-25T22:13:53.659Z,62.44
2018-03-25T22:16:22.007Z,62.13
2018-03-25T22:18:59.299Z,61.59
2018-03-25T22:21:27.647Z,61.74
2018-03-25T22:23:55.977Z,61.75
2018-03-25T22:26:24.322Z,61.78
2018-03-25T22:28:52.651Z,61.77
2018-03-25T22:31:21.006Z,61.65
2018-03-25T22:33:49.338Z,61.46
2018-03-25T22:36:17.696Z,61.28
2018-03-25T22:38:46.032Z,61.35
2018-03-25T22:41:14.382Z,61.29
2018-03-25T22:43:42.710Z,61.35
2018-03-25T22:46:11.057Z,61.47
2018-03-25T22:48:39.403Z,61.57
2018-03-25T22:51:07.774Z,61.68
2018-03-25T22:53:36.070Z,61.90
2018-03-25T22:56:04.419Z,62.04
2018-03-25T22:58:32.749Z,62.01
2018-03-25T23:01:01.110Z,62.04
2018-03-25T23:03:29.437Z,62.08
2018-03-25T23:05:57.789Z,62.20
2018-03-25T23:08:26.118Z,62.34
2018-03-25T23:10:54.474Z,62.60
2018-03-25T23:13:22.802Z,62.69
2018-03-25T23:15:51.150Z,62.73
2018-03-25T23:18:19.487Z,62.54
2018-03-25T23:20:47.854Z,62.02
2018-03-25T23:23:16.187Z,61.72
2018-03-25T23:25:44.585Z,62.05
2018-03-25T23:28:12.866Z,61.79
2018-03-25T23:30:41.201Z,61.92
2018-03-25T23:33:09.545Z,61.87
2018-03-25T23:35:37.885Z,62.10
2018-03-25T23:38:06.239Z,61.94
2018-03-25T23:40:34.570Z,61.94
2018-03-25T23:43:02.923Z,61.97
2018-03-25T23:45:31.282Z,61.66
2018-03-25T23:47:59.630Z,61.89
2018-03-25T23:50:27.970Z,62.07
2018-03-25T23:52:56.322Z,61.50
2018-03-25T23:55:24.650Z,61.29
2018-03-25T23:57:53.008Z,61.25
